Jogging de Cherain 26/04/2019 - 11,1 Km
Place Nom Prénom Temps Vitesse Allure Place. Cat. Cat.
1 DEROANNE FRANCOIS 664 0:44:23 15,0 3:59 1 S
2 LAMBERT LUDOVIC 651 0:44:48 14,9 4:02 2 S
3 CREMER DORIAN 679 0:45:44 14,6 4:07 1 EG
4 NEULENS FABIAN 660 0:47:07 14,1 4:14 3 S
5 BOSKIN BERNARD 676 0:49:17 13,5 4:26 4 S
6 LECOQ QUENTIN 682 0:49:43 13,4 4:28 5 S
7 COURARD FABIAN 652 0:50:05 13,3 4:30 1 V1
8 MARTIN PONETTE 678 0:51:00 13,1 4:35 2 EG
9 NIETO MAXIM 666 0:51:27 12,9 4:38 3 EG
10 BERTRAND MICHEL 655 0:51:47 12,9 4:39 1 V3
11 HENNUY THOMAS 665 0:52:38 12,7 4:44 4 EG
12 ZUNE FABRICE 670 0:53:26 12,5 4:48 2 V1
13 CADY CORENTIN 663 0:54:13 12,3 4:53 6 S
14 BERTRAND PAULINE 653 0:55:18 12,0 4:58 1 D
15 MAGIN JEAN-FRANCOIS 654 0:55:18 12,0 4:58 7 S
16 DEWEZ NICOLAS 684 0:55:18 12,0 4:58 8 S
17 PONETTE MATHILDE 658 0:55:25 12,0 4:59 2 D
18 BERTRAND MARTIN 657 0:55:25 12,0 4:59 9 S
19 DETHIER QUENTIN 656 0:56:32 11,8 5:05 3 V1
20 BASTIEN NOE 667 0:56:50 11,7 5:07 5 EG
21 TREFOIS ANNE-SOPHIE 659 0:57:50 11,5 5:12 1 A1
22 HEINE CHRISTOPHE 674 0:58:32 11,4 5:16 1 V2
23 HEINE BENOIT 680 0:58:32 11,4 5:16 2 V2
24 BASTIEN CLARA 668 0:59:06 11,3 5:19 1 EF
25 DEROANNE AUDELINE 672 1:02:58 10,6 5:40 3 D
26 MULLER FLORIAN 673 1:02:58 10,6 5:40 10 S
27 STEFANO PASCAL 683 1:03:15 10,5 5:41 4 V1
28 SOLPASSO SANTE 669 1:08:03 9,8 6:07 3 V2
29 GIGOT VALERIE 675 1:09:03 9,6 6:13 1 A2
30 THYS ISABELLE 662 1:09:03 9,6 6:13 2 A2
31 MAEYAERT SIEGRUN 671 1:11:24 9,3 6:26 3 A2
32 CARABIN MANU 661 1:13:47 9,0 6:38 2 A1
33 METTENANXY JESSICA 677 1:14:26 8,9 6:42 4 D
34 CHAPELLE JEAN 681 1:14:26 8,9 6:42 11 S